Time;durP1;ratioP1;P1;durP2;ratioP2;P2;SDS_P1;SDS_P2;PMS_P1;PMS_P2;Temp;Humidity;BMP_temperature;BMP_pressure;BME280_temperature;BME280_humidity;BME280_pressure;Samples;Min_cycle;Max_cycle;Signal;HPM_P1;HPM_P2
2022/05/25 00:01:32;;;;;;;68.33;63.73;;;;;;;11.41;100.00;101196.67;1979716;72;26296;-75
2022/05/25 00:07:10;;;;;;;70.30;65.70;;;;;;;11.34;100.00;101194.16;2053747;69;32583;-74
2022/05/25 00:09:40;;;;;;;67.30;62.50;;;;;;;11.33;100.00;101205.59;1939588;73;26644;-77
2022/05/25 00:12:12;;;;;;;65.37;60.67;;;;;;;11.33;100.00;101213.38;1938031;74;26214;-77
2022/05/25 00:14:43;;;;;;;63.00;58.50;;;;;;;11.10;100.00;101214.52;1966377;73;26198;-74
2022/05/25 00:17:13;;;;;;;66.73;62.10;;;;;;;10.99;100.00;101215.66;1933439;73;26356;-73
2022/05/25 00:20:02;;;;;;;66.17;61.67;;;;;;;10.92;100.00;101224.25;1939190;73;26204;-76
2022/05/25 00:22:40;;;;;;;67.83;63.13;;;;;;;11.03;100.00;101220.37;1941460;73;26723;-74
2022/05/25 00:25:13;;;;;;;68.40;63.90;;;;;;;11.14;100.00;101227.58;1933011;73;26322;-73
2022/05/25 00:27:44;;;;;;;69.63;65.13;;;;;;;11.23;100.00;101237.02;1942281;73;26219;-77
2022/05/25 00:30:16;;;;;;;69.40;64.80;;;;;;;11.10;100.00;101231.20;1936644;73;26251;-74
2022/05/25 00:32:46;;;;;;;67.47;62.97;;;;;;;11.04;100.00;101232.33;1931540;73;26212;-76
2022/05/25 00:35:19;;;;;;;70.10;65.67;;;;;;;11.24;100.00;101226.73;1927642;73;26306;-74
2022/05/25 00:37:50;;;;;;;67.93;63.43;;;;;;;11.41;100.00;101232.83;1937898;73;26215;-73
2022/05/25 00:40:22;;;;;;;65.90;61.53;;;;;;;11.43;100.00;101237.53;1937840;74;26173;-73
2022/05/25 00:42:52;;;;;;;67.03;62.47;;;;;;;11.56;100.00;101225.81;1936811;73;26277;-74
2022/05/25 00:45:23;;;;;;;65.57;61.37;;;;;;;11.61;100.00;101234.70;1936413;73;26283;-76
2022/05/25 00:47:54;;;;;;;67.80;63.40;;;;;;;11.41;100.00;101228.66;2020100;70;26209;-76
2022/05/25 00:50:26;;;;;;;69.23;64.67;;;;;;;11.47;100.00;101234.46;2006097;70;26611;-75
2022/05/25 00:52:57;;;;;;;69.50;64.90;;;;;;;11.60;100.00;101238.05;2016551;70;26214;-76
2022/05/25 00:58:37;;;;;;;70.33;65.87;;;;;;;11.57;100.00;101229.44;2041895;69;32588;-74
2022/05/25 01:01:07;;;;;;;69.17;64.67;;;;;;;11.61;100.00;101239.72;1939525;73;26176;-74
2022/05/25 01:03:37;;;;;;;68.97;64.20;;;;;;;11.56;100.00;101239.73;1934378;73;26330;-77
2022/05/25 01:06:12;;;;;;;67.47;62.73;;;;;;;11.52;100.00;101240.58;1965497;72;26276;-74
2022/05/25 01:08:47;;;;;;;65.93;61.53;;;;;;;11.54;100.00;101241.98;1930633;73;26203;-74
2022/05/25 01:11:24;;;;;;;69.57;64.87;;;;;;;11.61;100.00;101237.49;2021065;70;26260;-73
2022/05/25 01:13:57;;;;;;;65.00;60.53;;;;;;;11.52;100.00;101231.67;2012231;70;26218;-73
2022/05/25 01:16:31;;;;;;;66.90;62.37;;;;;;;11.33;100.00;101239.80;2013168;70;26682;-73
2022/05/25 01:19:06;;;;;;;69.03;64.13;;;;;;;11.40;100.00;101240.33;2012239;70;26204;-74
2022/05/25 01:21:39;;;;;;;66.80;62.20;;;;;;;11.39;100.00;101240.05;2012924;70;26732;-76
2022/05/25 01:24:25;;;;;;;67.07;62.37;;;;;;;11.18;100.00;101244.53;2025986;70;26661;-76
2022/05/25 01:27:24;;;;;;;67.23;62.40;;;;;;;11.35;100.00;101245.90;2020069;70;26274;-77
2022/05/25 01:30:11;;;;;;;67.10;62.20;;;;;;;11.43;100.00;101241.70;2012654;70;26660;-74
2022/05/25 01:33:11;;;;;;;67.20;62.50;;;;;;;11.41;100.00;101242.01;2006305;70;26215;-76
2022/05/25 01:35:50;;;;;;;70.63;65.83;;;;;;;11.23;100.00;101246.76;1943008;73;26304;-74
2022/05/25 01:38:25;;;;;;;67.03;62.10;;;;;;;11.15;100.00;101257.61;2017533;70;26238;-75
2022/05/25 01:41:02;;;;;;;69.03;64.13;;;;;;;11.24;100.00;101258.72;2013009;70;26300;-74
2022/05/25 01:43:37;;;;;;;68.63;63.73;;;;;;;11.24;100.00;101262.89;2008658;70;26215;-73
2022/05/25 01:46:12;;;;;;;65.37;60.37;;;;;;;10.95;100.00;101267.61;2018296;70;26214;-73
2022/05/25 01:48:46;;;;;;;67.47;62.53;;;;;;;11.16;100.00;101252.33;2012556;70;26293;-73
2022/05/25 01:51:20;;;;;;;66.83;61.80;;;;;;;10.61;100.00;101254.55;2013001;70;26222;-76
2022/05/25 01:53:53;;;;;;;69.67;64.67;;;;;;;10.56;100.00;101259.53;2016889;70;26175;-73
2022/05/25 01:59:31;;;;;;;62.27;57.37;;;;;;;10.36;100.00;101246.97;2041139;69;32260;-76
2022/05/25 02:04:52;;;;;;;70.80;65.70;;;;;;;10.24;100.00;101256.11;1934687;73;26329;-73
2022/05/25 02:07:39;;;;;;;63.87;58.97;;;;;;;10.43;100.00;101265.06;1969480;72;26700;-73
2022/05/25 02:13:41;;;;;;;64.07;59.07;;;;;;;10.56;100.00;101244.26;2052478;69;32623;-74
2022/05/25 02:16:18;;;;;;;63.80;58.90;;;;;;;10.51;100.00;101253.97;2011131;70;26295;-73
2022/05/25 02:18:55;;;;;;;62.80;57.80;;;;;;;10.47;100.00;101260.63;2014764;70;26246;-73
2022/05/25 02:21:31;;;;;;;62.83;57.90;;;;;;;10.77;100.00;101258.45;2016656;70;26285;-73
2022/05/25 02:24:04;;;;;;;64.20;59.37;;;;;;;10.60;100.00;101253.70;1937986;74;26192;-73
2022/05/25 02:26:39;;;;;;;65.03;60.03;;;;;;;10.66;100.00;101256.75;1946454;73;26317;-76
2022/05/25 02:29:12;;;;;;;65.10;60.30;;;;;;;10.73;100.00;101246.22;1969505;72;26711;-75
2022/05/25 02:31:46;;;;;;;66.00;60.90;;;;;;;10.78;100.00;101241.23;1937981;74;26184;-75
2022/05/25 02:34:20;;;;;;;64.57;59.67;;;;;;;10.66;100.00;101251.74;1966573;72;26680;-75
2022/05/25 02:36:53;;;;;;;66.33;61.23;;;;;;;10.69;100.00;101249.28;1938706;73;26712;-76
2022/05/25 02:39:24;;;;;;;68.20;63.20;;;;;;;10.81;100.00;101251.22;2010527;70;26215;-75
2022/05/25 02:41:57;;;;;;;67.90;62.47;;;;;;;10.95;100.00;101243.98;1934623;73;26272;-73
2022/05/25 02:44:27;;;;;;;70.60;65.50;;;;;;;10.87;100.00;101240.37;2013425;70;26693;-73
2022/05/25 02:46:58;;;;;;;67.97;62.87;;;;;;;10.83;100.00;101235.64;1936858;73;26304;-76
2022/05/25 02:49:31;;;;;;;66.07;60.83;;;;;;;10.83;100.00;101237.87;2014827;70;26266;-76
2022/05/25 02:52:01;;;;;;;63.67;58.80;;;;;;;10.78;100.00;101237.06;1935615;73;26250;-74
2022/05/25 02:54:32;;;;;;;66.07;61.00;;;;;;;10.75;100.00;101238.98;2011292;70;26218;-76
2022/05/25 02:57:02;;;;;;;67.07;62.07;;;;;;;10.81;100.00;101239.27;1977959;72;26204;-75
2022/05/25 02:59:32;;;;;;;73.13;67.93;;;;;;;10.63;100.00;101244.81;1977243;72;26273;-74
2022/05/25 03:02:04;;;;;;;69.97;65.07;;;;;;;10.58;100.00;101249.52;1980025;72;26189;-74
2022/05/25 03:04:37;;;;;;;67.73;62.73;;;;;;;10.86;100.00;101238.73;1976738;72;26700;-76
2022/05/25 03:07:08;;;;;;;69.57;64.77;;;;;;;10.80;100.00;101245.93;1979400;72;26212;-76
2022/05/25 03:09:39;;;;;;;72.53;67.30;;;;;;;10.76;100.00;101244.27;1986374;72;26325;-73
2022/05/25 03:12:11;;;;;;;71.40;66.50;;;;;;;10.73;100.00;101245.38;1980243;72;26216;-73
2022/05/25 03:14:42;;;;;;;69.23;64.30;;;;;;;10.84;100.00;101235.38;1980508;72;26181;-73
2022/05/25 03:17:14;;;;;;;67.07;62.23;;;;;;;10.88;100.00;101234.26;1980439;72;26270;-76
2022/05/25 03:19:49;;;;;;;66.33;61.13;;;;;;;10.88;100.00;101232.31;1980476;72;26168;-75
2022/05/25 03:22:19;;;;;;;70.20;65.30;;;;;;;10.99;100.00;101233.72;1904334;75;26332;-76
2022/05/25 03:24:50;;;;;;;69.03;64.13;;;;;;;11.03;100.00;101226.48;1903573;75;26238;-76
2022/05/25 03:27:20;;;;;;;70.33;65.17;;;;;;;10.93;100.00;101225.92;1931501;74;26321;-73
2022/05/25 03:29:50;;;;;;;70.33;65.23;;;;;;;10.79;100.00;101232.59;1903664;75;26294;-75
2022/05/25 03:32:20;;;;;;;70.83;65.93;;;;;;;10.95;100.00;101232.86;1903658;75;26273;-74
2022/05/25 03:34:51;;;;;;;67.63;62.90;;;;;;;10.81;100.00;101236.49;1903703;75;26265;-73
2022/05/25 03:37:21;;;;;;;71.20;65.97;;;;;;;10.60;100.00;101237.59;1903640;75;26260;-75
2022/05/25 03:39:52;;;;;;;67.30;62.30;;;;;;;10.55;100.00;101240.36;1931396;74;26205;-73
2022/05/25 03:42:23;;;;;;;70.17;65.17;;;;;;;10.62;100.00;101241.75;1903635;75;26278;-75
2022/05/25 03:44:53;;;;;;;73.97;68.77;;;;;;;10.70;100.00;101248.69;1931484;74;26221;-73
2022/05/25 03:47:24;;;;;;;68.83;63.90;;;;;;;10.68;100.00;101242.05;1903681;75;26264;-76
2022/05/25 03:49:55;;;;;;;68.90;63.97;;;;;;;10.78;100.00;101244.00;1931292;74;26287;-74
2022/05/25 03:52:25;;;;;;;74.00;68.87;;;;;;;10.67;100.00;101248.70;1903791;75;26185;-73
2022/05/25 03:54:56;;;;;;;68.37;63.60;;;;;;;10.71;100.00;101247.04;1931350;74;26197;-76
2022/05/25 03:57:26;;;;;;;69.57;64.57;;;;;;;10.76;100.00;101251.22;1903824;75;26186;-73
2022/05/25 03:59:56;;;;;;;68.10;63.10;;;;;;;10.83;100.00;101260.66;1931531;74;26295;-73
2022/05/25 04:05:36;;;;;;;69.50;64.50;;;;;;;11.02;100.00;101246.50;2061009;69;32612;-76
2022/05/25 04:08:07;;;;;;;71.40;66.47;;;;;;;10.94;100.00;101260.41;2026630;71;26608;-73
2022/05/25 04:10:38;;;;;;;70.60;65.37;;;;;;;10.86;100.00;101252.62;2010978;70;26214;-73
2022/05/25 04:13:08;;;;;;;71.10;66.03;;;;;;;10.97;100.00;101259.00;2031412;70;26255;-76
2022/05/25 04:15:38;;;;;;;67.97;63.03;;;;;;;10.83;100.00;101260.10;2010531;70;26180;-75
2022/05/25 04:18:11;;;;;;;71.33;66.43;;;;;;;10.87;100.00;101260.37;2010292;70;26265;-75
2022/05/25 04:20:42;;;;;;;68.50;63.40;;;;;;;11.00;100.00;101257.59;2015186;70;26223;-73
2022/05/25 04:23:13;;;;;;;72.03;66.80;;;;;;;11.03;100.00;101254.28;2016976;70;26235;-74
2022/05/25 04:25:43;;;;;;;70.43;65.53;;;;;;;11.00;100.00;101252.04;2012664;70;26239;-76
2022/05/25 04:28:14;;;;;;;73.00;67.80;;;;;;;10.95;100.00;101255.09;2019516;71;26186;-73
2022/05/25 04:30:45;;;;;;;71.60;66.30;;;;;;;10.84;100.00;101267.89;2008284;70;26265;-73
2022/05/25 04:33:15;;;;;;;69.67;64.80;;;;;;;11.03;100.00;101266.24;2014694;70;26273;-73
2022/05/25 04:35:46;;;;;;;71.63;66.33;;;;;;;10.93;100.00;101268.45;2016897;70;26646;-73
2022/05/25 04:38:16;;;;;;;73.23;68.10;;;;;;;10.83;100.00;101271.77;2018324;70;26670;-75
2022/05/25 04:40:48;;;;;;;69.67;64.63;;;;;;;10.77;100.00;101270.11;2029749;70;26295;-73
2022/05/25 04:43:21;;;;;;;72.17;67.07;;;;;;;10.93;100.00;101267.62;2019592;70;26280;-76
2022/05/25 04:45:54;;;;;;;70.87;65.60;;;;;;;10.98;100.00;101273.73;2016920;70;26273;-75
2022/05/25 04:48:25;;;;;;;74.97;69.77;;;;;;;10.98;100.00;101276.52;2016871;70;26646;-73
2022/05/25 04:50:57;;;;;;;74.53;69.37;;;;;;;10.98;100.00;101274.58;2015747;70;26686;-73
2022/05/25 04:53:28;;;;;;;72.60;67.40;;;;;;;10.96;100.00;101272.06;2012924;70;26292;-73
2022/05/25 04:58:48;;;;;;;69.63;64.63;;;;;;;10.79;100.00;101279.83;1976544;72;26209;-75
2022/05/25 05:01:19;;;;;;;70.67;65.50;;;;;;;10.86;100.00;101276.24;1976715;72;26208;-74
2022/05/25 05:03:50;;;;;;;69.60;64.50;;;;;;;10.82;100.00;101269.58;1985018;70;26219;-73
2022/05/25 05:06:21;;;;;;;75.13;69.93;;;;;;;10.96;100.00;101265.66;1997617;72;26160;-74
2022/05/25 05:08:51;;;;;;;68.67;63.77;;;;;;;10.97;100.00;101268.73;1997830;72;26265;-75
2022/05/25 05:14:28;;;;;;;67.67;62.50;;;;;;;11.04;100.00;101277.61;2038266;69;32658;-74
2022/05/25 05:16:59;;;;;;;65.83;60.73;;;;;;;11.04;100.00;101279.59;1941788;73;26679;-77
2022/05/25 05:19:30;;;;;;;69.43;64.07;;;;;;;11.13;100.00;101278.73;1937999;74;26684;-76
2022/05/25 05:22:01;;;;;;;68.20;63.20;;;;;;;11.37;100.00;101281.23;1968842;72;26226;-76
2022/05/25 05:24:33;;;;;;;66.57;61.40;;;;;;;11.58;100.00;101277.02;1943039;73;26207;-74
2022/05/25 05:27:06;;;;;;;65.43;60.70;;;;;;;11.72;100.00;101284.52;1936124;73;26228;-76
2022/05/25 05:29:36;;;;;;;66.57;61.63;;;;;;;11.77;100.00;101280.33;2015261;70;26294;-74
2022/05/25 05:32:10;;;;;;;65.70;60.70;;;;;;;11.92;100.00;101273.05;2021844;70;26796;-74
2022/05/25 05:34:40;;;;;;;66.83;61.63;;;;;;;11.92;100.00;101271.66;2009169;70;26275;-74
2022/05/25 05:37:14;;;;;;;64.90;59.90;;;;;;;12.01;100.00;101273.58;2014507;70;26187;-76
2022/05/25 05:39:47;;;;;;;66.77;62.07;;;;;;;12.10;100.00;101266.31;2026676;70;26768;-76
2022/05/25 05:42:20;;;;;;;66.17;61.30;;;;;;;12.16;100.00;101270.72;2012532;70;26220;-73
2022/05/25 05:44:54;;;;;;;67.20;62.30;;;;;;;12.19;100.00;101274.31;2008658;70;26338;-76
2022/05/25 05:47:27;;;;;;;67.53;62.53;;;;;;;12.26;100.00;101272.62;2016957;70;26270;-76
2022/05/25 05:50:01;;;;;;;67.27;62.27;;;;;;;12.30;100.00;101243.08;1937996;73;26255;-75
2022/05/25 05:52:34;;;;;;;66.87;61.67;;;;;;;12.37;100.00;101250.55;1934911;73;26293;-76
2022/05/25 05:55:05;;;;;;;66.53;61.50;;;;;;;12.43;100.00;101246.63;1938223;73;26273;-76
2022/05/25 05:57:38;;;;;;;68.13;63.13;;;;;;;12.43;100.00;101241.05;1933215;74;26279;-76
2022/05/25 06:00:15;;;;;;;67.53;62.43;;;;;;;12.52;100.00;101242.67;1932116;74;26175;-76
2022/05/25 06:02:46;;;;;;;73.70;68.53;;;;;;;12.60;100.00;101247.07;1932231;74;26220;-71
2022/05/25 06:05:17;;;;;;;69.97;64.97;;;;;;;12.61;100.00;101244.56;1935706;74;26207;-76
2022/05/25 06:07:47;;;;;;;67.77;63.17;;;;;;;12.71;100.00;101239.45;1896368;75;26630;-77
2022/05/25 06:10:17;;;;;;;71.73;66.90;;;;;;;12.79;100.00;101243.05;1969030;72;26193;-71
2022/05/25 06:12:47;;;;;;;71.50;66.40;;;;;;;12.83;100.00;101248.31;1983087;71;26323;-71
2022/05/25 06:21:11;;;;;;;71.57;66.57;;;;;;;13.07;100.00;101240.02;2059277;69;33097;-76
2022/05/25 06:23:41;;;;;;;70.23;65.23;;;;;;;13.12;100.00;101259.53;2014343;71;26247;-72
2022/05/25 06:26:14;;;;;;;70.70;65.67;;;;;;;13.15;100.00;101269.53;2014382;70;26223;-76
2022/05/25 06:28:44;;;;;;;71.80;67.10;;;;;;;13.26;100.00;101258.30;2020947;70;26285;-71
2022/05/25 06:31:16;;;;;;;69.73;65.13;;;;;;;13.39;100.00;101262.60;2012839;70;26673;-72
2022/05/25 06:33:48;;;;;;;70.40;65.50;;;;;;;13.48;100.00;101261.40;1937355;73;26666;-71
2022/05/25 06:36:21;;;;;;;70.13;65.53;;;;;;;13.50;100.00;101266.14;1940718;73;26212;-76
2022/05/25 06:38:51;;;;;;;69.30;64.70;;;;;;;13.46;100.00;101263.11;1966242;72;26234;-71
2022/05/25 06:41:22;;;;;;;68.03;63.63;;;;;;;13.55;100.00;101269.72;1934791;73;26322;-77
2022/05/25 06:43:52;;;;;;;69.17;64.40;;;;;;;13.52;100.00;101269.48;1971610;72;26197;-76
2022/05/25 06:46:23;;;;;;;71.77;66.77;;;;;;;13.61;100.00;101271.88;1940327;73;26289;-71
2022/05/25 06:48:55;;;;;;;71.67;66.97;;;;;;;13.63;100.00;101281.63;1966452;72;26231;-72
2022/05/25 06:51:27;;;;;;;70.47;65.90;;;;;;;13.66;100.00;101285.22;1934641;73;26247;-76
2022/05/25 06:53:59;;;;;;;68.00;63.50;;;;;;;13.64;100.00;101287.50;1971948;72;26321;-73
2022/05/25 06:56:29;;;;;;;68.43;63.93;;;;;;;13.59;100.00;101287.54;1934683;73;26244;-72
2022/05/25 06:59:00;;;;;;;68.83;64.30;;;;;;;13.66;100.00;101283.83;1931954;74;26200;-73
2022/05/25 07:01:31;;;;;;;68.80;64.33;;;;;;;13.68;100.00;101287.73;1906339;75;26665;-76
2022/05/25 07:04:01;;;;;;;68.60;64.03;;;;;;;13.83;100.00;101281.97;1980781;72;26228;-72
2022/05/25 07:06:32;;;;;;;67.33;62.93;;;;;;;13.96;100.00;101279.86;1914547;74;26806;-78
2022/05/25 07:09:02;;;;;;;67.60;63.17;;;;;;;14.05;100.00;101284.23;1985514;72;26270;-72
2022/05/25 07:11:33;;;;;;;70.07;65.77;;;;;;;14.13;100.00;101286.36;1913940;74;26306;-72
2022/05/25 07:14:04;;;;;;;69.70;65.50;;;;;;;14.10;100.00;101291.98;1886804;75;26235;-72
2022/05/25 07:16:34;;;;;;;70.07;65.20;;;;;;;14.11;100.00;101284.44;1938066;73;26285;-77
2022/05/25 07:19:05;;;;;;;67.83;63.73;;;;;;;14.55;100.00;101296.72;1884328;75;26265;-73
2022/05/25 07:21:36;;;;;;;70.13;65.87;;;;;;;14.52;100.00;101285.59;1904433;75;26183;-72
2022/05/25 07:24:07;;;;;;;70.33;66.13;;;;;;;14.44;100.00;101286.83;1938061;74;26192;-80
2022/05/25 07:26:38;;;;;;;67.93;63.83;;;;;;;14.44;100.00;101286.83;1937896;74;26353;-71
2022/05/25 07:29:08;;;;;;;70.87;66.67;;;;;;;14.47;100.00;101293.20;1882920;76;26242;-73
2022/05/25 07:31:42;;;;;;;69.10;64.70;;;;;;;14.62;100.00;101294.41;1903777;75;26262;-73
2022/05/25 07:34:17;;;;;;;66.47;62.17;;;;;;;14.67;100.00;101303.29;1937174;74;26254;-69
2022/05/25 07:36:53;;;;;;;67.67;63.10;;;;;;;14.56;100.00;101293.64;1937109;74;26224;-69
2022/05/25 07:42:32;;;;;;;66.17;62.37;;;;;;;14.75;100.00;101286.66;2053430;69;33120;-74
2022/05/25 07:45:04;;;;;;;64.80;61.10;;;;;;;14.79;100.00;101290.52;1937955;73;26216;-74
2022/05/25 07:47:35;;;;;;;66.83;62.73;;;;;;;14.89;100.00;101286.74;2020409;70;26288;-73
2022/05/25 07:50:07;;;;;;;66.87;62.97;;;;;;;15.04;100.00;101287.88;2010429;70;26265;-70
2022/05/25 07:52:40;;;;;;;65.03;61.30;;;;;;;15.18;100.00;101279.55;2017810;70;26328;-73
2022/05/25 07:55:12;;;;;;;63.47;59.67;;;;;;;15.14;100.00;101282.13;2004552;70;26229;-73
2022/05/25 07:57:42;;;;;;;64.00;60.10;;;;;;;15.21;100.00;101281.73;1976654;72;26238;-69
2022/05/25 08:06:10;;;;;;;61.63;57.83;;;;;;;15.35;100.00;101268.05;1943888;73;26325;-71
2022/05/25 08:08:40;;;;;;;58.40;55.10;;;;;;;15.56;100.00;101267.14;2020023;70;26203;-70
2022/05/25 08:11:13;;;;;;;58.40;55.10;;;;;;;15.56;100.00;101265.73;2018776;70;26274;-74
2022/05/25 08:13:46;;;;;;;55.50;52.30;;;;;;;15.65;100.00;101256.89;2019287;70;26240;-69
2022/05/25 08:16:17;;;;;;;55.20;52.20;;;;;;;15.67;100.00;101273.36;2016937;70;26284;-73
2022/05/25 08:18:47;;;;;;;55.87;52.67;;;;;;;15.75;100.00;101257.23;2016843;70;26252;-69
2022/05/25 08:21:18;;;;;;;56.33;52.80;;;;;;;15.76;100.00;101259.73;2019029;70;26230;-69
2022/05/25 08:23:48;;;;;;;55.73;52.37;;;;;;;15.71;100.00;101270.20;2013463;70;26661;-73
2022/05/25 08:26:18;;;;;;;56.90;53.40;;;;;;;15.85;100.00;101257.05;2018032;70;26214;-73
2022/05/25 08:28:51;;;;;;;52.13;49.20;;;;;;;15.87;100.00;101263.19;2016941;70;26740;-69
2022/05/25 08:31:21;;;;;;;55.97;52.67;;;;;;;15.83;100.00;101267.75;2012870;70;26733;-73
2022/05/25 08:33:51;;;;;;;55.20;52.00;;;;;;;15.83;100.00;101271.95;2016969;70;26221;-73
2022/05/25 08:36:21;;;;;;;56.70;53.30;;;;;;;15.88;100.00;101285.83;2017092;70;26203;-69
2022/05/25 08:38:54;;;;;;;53.13;49.80;;;;;;;15.89;100.00;101272.09;2011880;70;26662;-70
2022/05/25 08:41:27;;;;;;;57.10;53.70;;;;;;;15.81;100.00;101265.81;2023893;70;26758;-69
2022/05/25 08:44:00;;;;;;;54.80;51.70;;;;;;;15.91;100.00;101277.66;2025648;70;26247;-73
2022/05/25 08:46:33;;;;;;;53.13;50.23;;;;;;;15.88;100.00;101271.26;2010759;70;26214;-69
2022/05/25 08:49:05;;;;;;;51.33;48.53;;;;;;;15.75;100.00;101264.23;2014458;70;26311;-69
2022/05/25 08:51:42;;;;;;;52.27;49.47;;;;;;;15.75;100.00;101274.05;2023677;70;26742;-73
2022/05/25 08:54:13;;;;;;;52.17;49.47;;;;;;;15.78;100.00;101267.84;2019339;70;26672;-69
2022/05/25 08:56:47;;;;;;;51.30;48.50;;;;;;;15.85;100.00;101266.85;1977734;70;26687;-73
2022/05/25 08:59:22;;;;;;;51.60;48.80;;;;;;;15.83;100.00;101258.75;1977708;72;26274;-73
2022/05/25 09:01:56;;;;;;;55.70;52.60;;;;;;;15.90;100.00;101254.98;1989946;71;26342;-69
2022/05/25 09:07:38;;;;;;;54.10;51.13;;;;;;;15.99;100.00;101245.84;2045929;69;32621;-74
2022/05/25 09:13:18;;;;;;;52.87;49.97;;;;;;;16.16;100.00;101249.68;2045654;69;33166;-76
2022/05/25 09:18:42;;;;;;;64.30;60.50;;;;;;;16.15;100.00;101256.42;1941034;73;26691;-75
2022/05/25 09:21:19;;;;;;;67.00;62.47;;;;;;;16.18;100.00;101255.78;1969323;72;26313;-73
2022/05/25 09:23:52;;;;;;;63.70;59.97;;;;;;;16.17;100.00;101258.92;1939921;73;24160;-74
2022/05/25 09:26:22;;;;;;;66.23;62.03;;;;;;;15.99;100.00;101256.48;1937888;74;26182;-70
2022/05/25 09:28:56;;;;;;;64.57;60.67;;;;;;;16.06;100.00;101254.66;1937327;73;26277;-70
2022/05/25 09:31:31;;;;;;;66.87;62.33;;;;;;;16.00;100.00;101253.12;2020689;70;26720;-73
2022/05/25 09:34:06;;;;;;;65.23;61.30;;;;;;;15.87;100.00;101256.18;2017623;70;26322;-73
2022/05/25 09:36:41;;;;;;;66.30;62.20;;;;;;;15.66;100.00;101252.92;2027021;70;26270;-70
2022/05/25 09:39:18;;;;;;;64.23;60.63;;;;;;;15.77;100.00;101253.57;2023466;70;26265;-69
2022/05/25 09:41:48;;;;;;;63.93;59.77;;;;;;;15.66;100.00;101258.52;2013950;70;26201;-73
2022/05/25 09:44:20;;;;;;;62.77;58.97;;;;;;;15.58;100.00;101265.41;2031454;70;26163;-73
2022/05/25 09:46:53;;;;;;;63.87;60.10;;;;;;;15.52;100.00;101259.09;2011388;70;26214;-69
2022/05/25 09:49:39;;;;;;;64.30;60.30;;;;;;;15.48;100.00;101272.85;2017621;70;26221;-69
2022/05/25 09:52:14;;;;;;;65.07;61.23;;;;;;;15.62;100.00;101256.08;2019137;70;26660;-72
2022/05/25 09:54:47;;;;;;;65.43;61.43;;;;;;;15.74;100.00;101259.80;2010777;70;26289;-73
2022/05/25 10:00:42;;;;;;;66.73;62.57;;;;;;;15.69;100.00;101248.69;2044637;69;32593;-69
2022/05/25 10:03:15;;;;;;;68.47;63.93;;;;;;;15.65;100.00;101253.25;1941035;73;26747;-70
2022/05/25 10:05:56;;;;;;;66.77;62.63;;;;;;;15.64;100.00;101266.98;1969430;72;26184;-73
2022/05/25 10:08:37;;;;;;;66.17;61.97;;;;;;;15.60;100.00;101256.98;1917095;72;26193;-74
2022/05/25 10:11:28;;;;;;;68.47;64.37;;;;;;;15.62;100.00;101258.05;1972232;73;26163;-69
2022/05/25 10:14:01;;;;;;;67.13;63.30;;;;;;;15.49;100.00;101260.48;1942496;73;26209;-74
2022/05/25 10:16:32;;;;;;;70.43;66.33;;;;;;;15.56;100.00;101251.73;1926056;74;26233;-73
2022/05/25 10:19:03;;;;;;;70.07;65.77;;;;;;;15.59;100.00;101258.67;1936408;73;26219;-74
2022/05/25 10:21:36;;;;;;;68.50;64.50;;;;;;;15.67;100.00;101255.16;2010223;70;26298;-69
2022/05/25 10:24:15;;;;;;;68.43;64.33;;;;;;;15.83;100.00;101248.14;2024575;70;26211;-70
2022/05/25 10:26:54;;;;;;;67.37;63.13;;;;;;;15.75;100.00;101259.47;1965778;72;26224;-74
2022/05/25 10:38:15;;;;;;;65.90;61.77;;;;;;;16.13;100.00;101247.48;1937870;73;26810;-70
2022/05/25 10:40:46;;;;;;;64.50;60.40;;;;;;;16.19;100.00;101239.23;1943048;73;26220;-70
2022/05/25 10:43:25;;;;;;;64.57;60.50;;;;;;;16.28;100.00;101235.95;1937667;74;26212;-70
2022/05/25 10:45:58;;;;;;;63.50;59.60;;;;;;;16.51;100.00;101232.64;1937698;74;26654;-70
2022/05/25 10:48:40;;;;;;;62.80;59.00;;;;;;;16.39;100.00;101240.75;1928353;74;26792;-69
2022/05/25 10:51:15;;;;;;;64.73;60.93;;;;;;;16.48;100.00;101250.64;1931646;73;26725;-73
2022/05/25 10:56:57;;;;;;;67.43;63.53;;;;;;;16.52;100.00;101242.69;2024474;69;32703;-68
2022/05/25 10:59:33;;;;;;;64.57;60.67;;;;;;;16.46;100.00;101234.72;1980031;72;26650;-70
2022/05/25 11:02:15;;;;;;;64.03;60.20;;;;;;;16.57;100.00;101236.13;1972350;72;26234;-73
2022/05/25 11:05:17;;;;;;;63.90;59.63;;;;;;;16.63;100.00;101215.28;1980430;72;26644;-73
2022/05/25 11:07:58;;;;;;;62.23;58.53;;;;;;;16.63;100.00;101217.52;1978230;72;26252;-68
2022/05/25 11:10:47;;;;;;;65.00;61.20;;;;;;;16.88;100.00;101216.63;1976791;72;26305;-68
2022/05/25 11:16:50;;;;;;;62.70;58.90;;;;;;;16.97;100.00;101224.55;2053378;69;32678;-74
2022/05/25 11:23:09;;;;;;;62.97;59.27;;;;;;;16.92;100.00;101226.06;2053196;69;32621;-74
2022/05/25 11:29:13;;;;;;;62.73;59.13;;;;;;;16.92;100.00;101226.91;2053256;69;32639;-73
2022/05/25 11:35:11;;;;;;;69.40;65.47;;;;;;;17.15;100.00;101218.74;2061197;69;30567;-68
2022/05/25 11:37:50;;;;;;;65.97;62.37;;;;;;;17.11;100.00;101226.15;2016903;70;26207;-73
2022/05/25 11:40:25;;;;;;;65.27;61.77;;;;;;;17.43;100.00;101219.96;2014213;70;26217;-67
2022/05/25 11:46:13;;;;;;;61.47;58.20;;;;;;;17.48;100.00;101217.02;2061228;69;30668;-73
2022/05/25 11:48:53;;;;;;;63.33;59.83;;;;;;;17.45;100.00;101205.87;2019276;70;26684;-73
2022/05/25 11:51:26;;;;;;;64.07;60.60;;;;;;;17.38;100.00;101206.05;2014495;70;26760;-68
2022/05/25 11:54:11;;;;;;;61.10;57.70;;;;;;;17.37;100.00;101216.45;2015798;70;26733;-73
2022/05/25 12:00:09;;;;;;;59.10;55.90;;;;;;;17.46;100.00;101208.07;2047311;69;31087;-73
2022/05/25 12:02:58;;;;;;;62.20;58.93;;;;;;;17.38;100.00;101211.66;1941051;72;24151;-68
2022/05/25 12:05:32;;;;;;;58.83;55.73;;;;;;;17.38;100.00;101211.66;1937711;74;24117;-72
2022/05/25 12:08:23;;;;;;;61.07;57.67;;;;;;;17.44;100.00;101218.81;1967666;72;24155;-67
2022/05/25 12:14:09;;;;;;;59.73;56.43;;;;;;;17.64;100.00;101212.66;2061081;69;30574;-69
2022/05/25 12:16:42;;;;;;;59.37;56.27;;;;;;;17.71;100.00;101217.25;2014143;70;24158;-74
2022/05/25 12:19:16;;;;;;;60.43;57.33;;;;;;;17.81;100.00;101217.52;1940817;73;26456;-74
2022/05/25 12:21:49;;;;;;;58.17;54.90;;;;;;;17.81;100.00;101211.33;2012088;70;26212;-70
2022/05/25 12:24:22;;;;;;;57.63;54.73;;;;;;;17.86;100.00;101218.20;1937878;73;24132;-74
2022/05/25 12:26:54;;;;;;;60.50;57.30;;;;;;;17.88;100.00;101221.53;1967371;72;24135;-69
2022/05/25 12:29:28;;;;;;;57.20;54.30;;;;;;;17.80;100.00;101214.48;1931904;73;24212;-69
2022/05/25 12:31:58;;;;;;;60.53;57.33;;;;;;;17.89;100.00;101213.91;1966242;72;24248;-69
2022/05/25 12:34:32;;;;;;;58.17;55.17;;;;;;;17.87;100.00;101220.45;1936682;73;24580;-74
2022/05/25 12:37:05;;;;;;;60.50;57.40;;;;;;;17.72;100.00;101225.91;1949553;73;26702;-70
2022/05/25 12:39:56;;;;;;;62.50;59.23;;;;;;;17.68;100.00;101224.33;1965498;72;26236;-74
2022/05/25 12:42:44;;;;;;;62.87;59.57;;;;;;;17.63;100.00;101225.88;1937832;74;24120;-69
2022/05/25 12:48:50;;;;;;;63.67;60.30;;;;;;;17.61;100.00;101228.77;1965567;72;24296;-73
2022/05/25 12:54:56;;;;;;;68.23;64.73;;;;;;;17.86;100.00;101219.61;2057245;69;31141;-74
2022/05/25 13:00:46;;;;;;;55.70;52.80;;;;;;;18.45;100.00;101225.70;2053372;69;30643;-68
2022/05/25 13:03:36;;;;;;;56.63;53.70;;;;;;;18.48;100.00;101218.03;2019375;71;24097;-73
2022/05/25 13:06:06;;;;;;;54.60;51.70;;;;;;;18.72;100.00;101216.16;2011055;70;24251;-68
2022/05/25 13:09:12;;;;;;;54.50;51.67;;;;;;;18.82;100.00;101199.78;2024135;70;26668;-69